createdAt,value
2019-03-18T00:00:39.325Z,4.30
2019-03-18T00:03:09.053Z,4.30
2019-03-18T00:05:38.738Z,4.30
2019-03-18T00:08:08.503Z,4.30
2019-03-18T00:10:38.175Z,4.30
2019-03-18T00:13:07.977Z,4.30
2019-03-18T00:15:37.656Z,4.20
2019-03-18T00:18:07.369Z,4.20
2019-03-18T00:20:37.085Z,4.20
2019-03-18T00:23:08.429Z,4.20
2019-03-18T00:25:38.395Z,4.30
2019-03-18T00:28:08.258Z,4.30
2019-03-18T00:30:38.121Z,4.20
2019-03-18T00:33:07.895Z,4.20
2019-03-18T00:35:37.562Z,4.20
2019-03-18T00:38:07.194Z,4.20
2019-03-18T00:40:37.010Z,4.20
2019-03-18T00:43:06.822Z,4.20
2019-03-18T00:45:36.636Z,4.20
2019-03-18T00:48:06.774Z,4.10
2019-03-18T00:50:36.422Z,4.20
2019-03-18T00:53:06.120Z,4.10
2019-03-18T00:55:35.786Z,4.20
2019-03-18T00:58:05.408Z,4.20
2019-03-18T01:00:35.025Z,4.20
2019-03-18T01:03:04.974Z,4.20
2019-03-18T01:05:34.559Z,4.20
2019-03-18T01:08:04.232Z,4.10
2019-03-18T01:10:33.863Z,4.10
2019-03-18T01:13:03.699Z,4.10
2019-03-18T01:15:33.332Z,4.20
2019-03-18T01:18:03.318Z,4.20
2019-03-18T01:20:33.130Z,4.20
2019-03-18T01:23:02.793Z,4.20
2019-03-18T01:25:32.373Z,4.20
2019-03-18T01:28:02.290Z,4.20
2019-03-18T01:30:31.908Z,4.20
2019-03-18T01:33:01.577Z,4.20
2019-03-18T01:35:31.251Z,4.30
2019-03-18T01:38:01.092Z,4.20
2019-03-18T01:40:30.709Z,4.20
2019-03-18T01:43:00.316Z,4.20
2019-03-18T01:45:40.188Z,4.20
2019-03-18T01:48:01.299Z,4.10
2019-03-18T01:50:31.094Z,4.10
2019-03-18T01:53:00.766Z,4.10
2019-03-18T01:55:30.505Z,4.00
2019-03-18T01:58:00.169Z,4.00
2019-03-18T02:00:29.939Z,4.00
2019-03-18T02:02:59.558Z,4.10
2019-03-18T02:05:29.308Z,4.10
2019-03-18T02:07:58.994Z,4.10
2019-03-18T02:10:28.702Z,4.10
2019-03-18T02:12:58.408Z,4.00
2019-03-18T02:15:28.132Z,4.00
2019-03-18T02:17:57.847Z,4.00
2019-03-18T02:20:27.477Z,4.10
2019-03-18T02:22:57.063Z,4.10
2019-03-18T02:25:26.661Z,4.10
2019-03-18T02:27:56.336Z,4.10
2019-03-18T02:30:26.024Z,4.10
2019-03-18T02:32:55.684Z,4.10
2019-03-18T02:35:25.499Z,4.10
2019-03-18T02:37:55.155Z,4.10
2019-03-18T02:40:24.824Z,4.10
2019-03-18T02:42:54.475Z,4.10
2019-03-18T02:45:24.791Z,4.10
2019-03-18T02:47:54.752Z,4.20
2019-03-18T02:50:24.371Z,4.20
2019-03-18T02:52:54.075Z,4.20
2019-03-18T02:55:24.027Z,4.20
2019-03-18T02:57:53.724Z,4.20
2019-03-18T03:00:23.512Z,4.20
2019-03-18T03:02:53.143Z,4.10
2019-03-18T03:05:22.809Z,4.10
2019-03-18T03:07:52.683Z,4.00
2019-03-18T03:10:22.304Z,4.00
2019-03-18T03:12:51.972Z,3.90
2019-03-18T03:15:21.663Z,3.80
2019-03-18T03:17:51.424Z,3.80
2019-03-18T03:20:21.083Z,3.70
2019-03-18T03:22:50.812Z,3.70
2019-03-18T03:25:24.515Z,3.70
2019-03-18T03:27:51.931Z,3.70
2019-03-18T03:30:21.575Z,3.70
2019-03-18T03:32:51.495Z,3.70
2019-03-18T03:35:21.156Z,3.90
2019-03-18T03:37:50.788Z,3.90
2019-03-18T03:40:22.181Z,4.00
2019-03-18T03:42:51.829Z,4.10
2019-03-18T03:45:21.621Z,4.10
2019-03-18T03:47:51.288Z,4.10
2019-03-18T03:50:20.942Z,4.20
2019-03-18T03:52:50.585Z,4.10
2019-03-18T03:55:20.214Z,4.10
2019-03-18T03:57:50.016Z,4.10
2019-03-18T04:00:19.640Z,4.10
2019-03-18T04:02:49.439Z,4.00
2019-03-18T04:05:19.227Z,4.00
2019-03-18T04:07:48.930Z,3.90
2019-03-18T04:10:18.555Z,3.80
2019-03-18T04:12:48.421Z,3.70
2019-03-18T04:15:18.167Z,3.70
2019-03-18T04:17:47.796Z,3.70
2019-03-18T04:20:17.751Z,3.60
2019-03-18T04:22:47.510Z,3.70
2019-03-18T04:25:17.166Z,3.70
2019-03-18T04:27:46.988Z,3.70
2019-03-18T04:30:16.726Z,3.70
2019-03-18T04:32:46.365Z,3.80
2019-03-18T04:35:16.027Z,3.80
2019-03-18T04:37:45.670Z,3.80
2019-03-18T04:40:15.444Z,3.90
2019-03-18T04:42:45.097Z,3.90
2019-03-18T04:45:14.801Z,3.90
2019-03-18T04:47:44.462Z,3.70
2019-03-18T04:50:14.227Z,3.70
2019-03-18T04:52:43.849Z,3.60
2019-03-18T04:55:13.543Z,3.50
2019-03-18T04:57:43.184Z,3.50
2019-03-18T05:00:13.992Z,3.40
2019-03-18T05:02:43.671Z,3.40
2019-03-18T05:05:13.453Z,3.30
2019-03-18T05:07:43.156Z,3.30
2019-03-18T05:10:13.226Z,3.40
2019-03-18T05:12:43.064Z,3.30
2019-03-18T05:15:12.863Z,3.30
2019-03-18T05:17:42.549Z,3.30
2019-03-18T05:20:12.517Z,3.30
2019-03-18T05:22:42.279Z,3.30
2019-03-18T05:25:11.966Z,3.40
2019-03-18T05:27:41.666Z,3.40
2019-03-18T05:30:13.486Z,3.40
2019-03-18T05:32:43.276Z,3.40
2019-03-18T05:35:13.046Z,3.40
2019-03-18T05:37:42.870Z,3.40
2019-03-18T05:40:12.790Z,3.40
2019-03-18T05:42:42.567Z,3.40
2019-03-18T05:45:12.361Z,3.50
2019-03-18T05:47:42.096Z,3.50
2019-03-18T05:50:12.202Z,3.60
2019-03-18T05:52:41.891Z,3.70
2019-03-18T05:55:11.588Z,3.80
2019-03-18T05:57:41.331Z,3.90
2019-03-18T06:00:12.685Z,3.80
2019-03-18T06:02:42.697Z,3.90
2019-03-18T06:05:12.441Z,3.90
2019-03-18T06:07:42.127Z,4.00
2019-03-18T06:10:12.939Z,4.00
2019-03-18T06:12:42.642Z,4.00
2019-03-18T06:15:13.225Z,4.00
2019-03-18T06:17:52.199Z,4.00
2019-03-18T06:20:14.213Z,4.00
2019-03-18T06:22:43.827Z,4.00
2019-03-18T06:25:13.580Z,4.00
2019-03-18T06:27:43.301Z,4.10
2019-03-18T06:30:14.874Z,4.10
2019-03-18T06:32:44.927Z,4.10
2019-03-18T06:35:14.977Z,4.10
2019-03-18T06:37:44.679Z,4.10
2019-03-18T06:40:15.126Z,4.10
2019-03-18T06:42:44.897Z,4.00
2019-03-18T06:45:14.659Z,4.00
2019-03-18T06:47:44.280Z,4.00
2019-03-18T06:50:14.035Z,4.00
2019-03-18T06:52:43.716Z,4.10
2019-03-18T06:55:14.433Z,4.00
2019-03-18T06:57:44.168Z,4.00
2019-03-18T07:00:15.517Z,4.00
2019-03-18T07:02:45.578Z,4.00
2019-03-18T07:05:17.004Z,4.10
2019-03-18T07:07:52.853Z,4.10
2019-03-18T07:10:22.854Z,4.10
2019-03-18T07:12:52.927Z,4.20
2019-03-18T07:15:22.852Z,4.30
2019-03-18T07:17:52.764Z,4.50
2019-03-18T07:20:22.514Z,4.50
2019-03-18T07:22:52.192Z,4.60
2019-03-18T07:25:22.048Z,4.70
2019-03-18T07:27:51.846Z,4.80
2019-03-18T07:30:21.459Z,4.80
2019-03-18T07:32:51.191Z,4.80
2019-03-18T07:35:20.802Z,4.90
2019-03-18T07:37:50.708Z,5.00
2019-03-18T07:40:20.327Z,5.10
2019-03-18T07:42:50.103Z,5.30
2019-03-18T07:45:19.763Z,5.40
2019-03-18T07:47:49.541Z,5.50
2019-03-18T07:50:19.307Z,5.60
2019-03-18T07:52:49.053Z,5.40
2019-03-18T07:55:18.721Z,5.60
2019-03-18T07:57:48.381Z,5.60
2019-03-18T08:00:18.177Z,5.60
2019-03-18T08:02:47.841Z,5.60
2019-03-18T08:05:17.615Z,5.40
2019-03-18T08:07:47.264Z,5.40
2019-03-18T08:10:16.978Z,5.20
2019-03-18T08:12:46.689Z,5.20
2019-03-18T08:15:16.299Z,5.10
2019-03-18T08:17:45.982Z,5.00
2019-03-18T08:20:15.622Z,5.20
2019-03-18T08:22:45.316Z,5.10
2019-03-18T08:25:15.085Z,5.30
2019-03-18T08:27:45.007Z,5.30
2019-03-18T08:30:16.127Z,5.40
2019-03-18T08:32:45.890Z,5.50
2019-03-18T08:35:15.640Z,5.30
2019-03-18T08:37:45.474Z,5.40
2019-03-18T08:40:15.228Z,5.40
2019-03-18T08:42:44.876Z,5.50
2019-03-18T08:45:14.708Z,5.60
2019-03-18T08:47:44.496Z,5.80
2019-03-18T08:50:14.225Z,5.80
2019-03-18T08:52:44.007Z,6.00
2019-03-18T08:55:13.692Z,6.30
2019-03-18T08:57:43.427Z,6.30
2019-03-18T09:00:14.917Z,6.60
2019-03-18T09:02:44.767Z,6.50
2019-03-18T09:05:14.473Z,6.30
2019-03-18T09:07:44.235Z,6.20
2019-03-18T09:10:15.039Z,6.50
2019-03-18T09:12:44.926Z,6.50
2019-03-18T09:15:16.121Z,6.40
2019-03-18T09:17:45.743Z,6.30
2019-03-18T09:20:17.414Z,6.20
2019-03-18T09:22:47.199Z,6.20
2019-03-18T09:25:17.000Z,5.80
2019-03-18T09:27:46.713Z,5.60
2019-03-18T09:30:17.993Z,5.40
2019-03-18T09:32:47.795Z,5.30
2019-03-18T09:35:17.780Z,5.30
2019-03-18T09:37:47.614Z,5.30
2019-03-18T09:40:17.794Z,5.40
2019-03-18T09:42:47.554Z,5.80
2019-03-18T09:45:18.204Z,6.20
2019-03-18T09:47:48.053Z,6.40
2019-03-18T09:50:17.831Z,6.50
2019-03-18T09:52:47.507Z,6.40
2019-03-18T09:55:17.328Z,6.20
2019-03-18T09:57:46.987Z,6.20
2019-03-18T10:00:19.100Z,6.30
2019-03-18T10:02:48.862Z,6.70
2019-03-18T10:05:18.778Z,7.30
2019-03-18T10:07:48.535Z,7.30
2019-03-18T10:10:18.322Z,6.90
2019-03-18T10:12:48.046Z,6.60
2019-03-18T10:15:20.102Z,6.80
2019-03-18T10:17:49.911Z,6.80
2019-03-18T10:20:19.568Z,6.90
2019-03-18T10:22:49.383Z,6.70
2019-03-18T10:25:19.296Z,6.60
2019-03-18T10:27:48.939Z,6.40
2019-03-18T10:30:18.632Z,6.20
2019-03-18T10:32:48.432Z,6.20
2019-03-18T10:35:18.409Z,6.10
2019-03-18T10:37:48.159Z,6.10
2019-03-18T10:40:17.938Z,6.00
2019-03-18T10:42:47.666Z,6.10
2019-03-18T10:45:17.489Z,6.20
2019-03-18T10:47:47.305Z,6.10
2019-03-18T10:50:17.994Z,6.00
2019-03-18T10:52:47.702Z,6.10
2019-03-18T10:55:17.476Z,6.10
2019-03-18T10:57:47.091Z,6.10
2019-03-18T11:00:17.972Z,6.30
2019-03-18T11:02:47.978Z,6.30
2019-03-18T11:05:17.843Z,6.30
2019-03-18T11:07:47.563Z,6.10
2019-03-18T11:10:17.701Z,6.20
2019-03-18T11:12:47.361Z,6.40
2019-03-18T11:15:19.232Z,6.50
2019-03-18T11:17:49.103Z,6.60
2019-03-18T11:20:19.234Z,6.90
2019-03-18T11:22:49.029Z,7.20
2019-03-18T11:25:18.886Z,7.30
2019-03-18T11:27:48.562Z,7.20
2019-03-18T11:30:19.367Z,7.30
2019-03-18T11:32:49.306Z,7.10
2019-03-18T11:35:19.226Z,7.00
2019-03-18T11:37:49.070Z,6.80
2019-03-18T11:40:20.632Z,6.60
2019-03-18T11:42:50.296Z,6.40
2019-03-18T11:45:19.976Z,6.50
2019-03-18T11:47:49.760Z,6.90
2019-03-18T11:50:20.599Z,7.30
2019-03-18T11:52:50.460Z,7.10
2019-03-18T11:55:22.383Z,7.10
2019-03-18T11:57:52.210Z,7.30
2019-03-18T12:00:23.283Z,7.20
2019-03-18T12:02:54.332Z,7.50
2019-03-18T12:05:26.430Z,7.60
2019-03-18T12:07:56.514Z,7.40
2019-03-18T12:10:26.341Z,7.50
2019-03-18T12:12:56.293Z,7.50
2019-03-18T12:15:28.859Z,7.40
2019-03-18T12:17:58.428Z,7.50
2019-03-18T12:20:28.218Z,7.30
2019-03-18T12:22:58.153Z,7.40
2019-03-18T12:25:27.976Z,7.40
2019-03-18T12:27:57.952Z,7.30
2019-03-18T12:30:28.959Z,7.70
2019-03-18T12:32:58.618Z,7.60
2019-03-18T12:35:28.293Z,7.40
2019-03-18T12:37:59.675Z,7.40
2019-03-18T12:40:29.537Z,7.60
2019-03-18T12:42:59.381Z,7.70
2019-03-18T12:45:29.305Z,7.80
2019-03-18T12:47:59.075Z,8.20
2019-03-18T12:50:49.196Z,8.10
2019-03-18T12:53:01.477Z,8.10
2019-03-18T12:55:31.356Z,8.00
2019-03-18T12:58:01.195Z,7.90
2019-03-18T13:00:33.068Z,7.80
2019-03-18T13:03:02.846Z,8.00
2019-03-18T13:05:32.520Z,7.90
2019-03-18T13:08:02.244Z,8.00
2019-03-18T13:10:31.848Z,8.10
2019-03-18T13:13:01.680Z,8.00
2019-03-18T13:15:31.503Z,8.20
2019-03-18T13:18:01.329Z,8.20
2019-03-18T13:20:31.068Z,8.50
2019-03-18T13:23:00.895Z,8.60
2019-03-18T13:25:30.837Z,8.50
2019-03-18T13:28:00.694Z,8.80
2019-03-18T13:30:31.750Z,8.80
2019-03-18T13:33:01.491Z,8.80
2019-03-18T13:35:31.311Z,8.80
2019-03-18T13:38:01.358Z,8.50
2019-03-18T13:40:31.273Z,8.50
2019-03-18T13:43:00.949Z,8.60
2019-03-18T13:45:30.744Z,8.80
2019-03-18T13:48:02.010Z,8.80
2019-03-18T13:50:31.838Z,8.70
2019-03-18T13:53:01.677Z,8.70
2019-03-18T13:55:31.267Z,9.00
2019-03-18T13:58:00.937Z,9.00
2019-03-18T14:00:31.394Z,9.00
2019-03-18T14:03:01.246Z,9.00
2019-03-18T14:05:31.090Z,8.70
2019-03-18T14:08:02.630Z,8.60
2019-03-18T14:10:32.387Z,8.20
2019-03-18T14:13:01.996Z,8.00
2019-03-18T14:15:31.904Z,8.00
2019-03-18T14:18:01.615Z,7.90
2019-03-18T14:20:31.235Z,7.70
2019-03-18T14:23:00.920Z,7.80
2019-03-18T14:25:30.780Z,7.90
2019-03-18T14:28:00.599Z,7.90
2019-03-18T14:30:30.433Z,8.20
2019-03-18T14:33:00.197Z,8.30
2019-03-18T14:35:29.885Z,8.60
2019-03-18T14:38:00.137Z,8.60
2019-03-18T14:40:29.879Z,8.30
2019-03-18T14:42:59.510Z,8.30
2019-03-18T14:45:29.334Z,8.40
2019-03-18T14:47:59.197Z,8.10
2019-03-18T14:50:29.072Z,8.00
2019-03-18T14:52:58.691Z,7.70
2019-03-18T14:55:28.329Z,7.80
2019-03-18T14:57:58.076Z,7.70
2019-03-18T15:00:28.929Z,7.50
2019-03-18T15:02:58.618Z,7.60
2019-03-18T15:05:28.348Z,7.70
2019-03-18T15:07:58.349Z,8.00
2019-03-18T15:10:29.801Z,8.10
2019-03-18T15:12:59.490Z,7.90
2019-03-18T15:15:29.161Z,8.10
2019-03-18T15:17:58.929Z,8.00
2019-03-18T15:20:29.282Z,8.10
2019-03-18T15:22:59.058Z,8.20
2019-03-18T15:25:31.180Z,8.00
2019-03-18T15:28:00.853Z,7.80
2019-03-18T15:30:30.534Z,7.60
2019-03-18T15:33:01.285Z,7.40
2019-03-18T15:35:31.061Z,7.10
2019-03-18T15:38:00.678Z,7.00
2019-03-18T15:40:30.734Z,6.90
2019-03-18T15:43:00.354Z,7.00
2019-03-18T15:45:30.174Z,7.10
2019-03-18T15:48:01.202Z,7.20
2019-03-18T15:50:31.051Z,7.30
2019-03-18T15:53:00.802Z,7.30
2019-03-18T15:55:30.546Z,7.10
2019-03-18T15:58:00.274Z,7.10
2019-03-18T16:00:31.803Z,7.10
2019-03-18T16:03:01.624Z,7.10
2019-03-18T16:05:31.343Z,7.10
2019-03-18T16:08:01.076Z,7.10
2019-03-18T16:10:30.715Z,7.00
2019-03-18T16:13:00.364Z,7.00
2019-03-18T16:15:30.037Z,6.90
2019-03-18T16:17:59.653Z,7.00
2019-03-18T16:20:29.456Z,6.90
2019-03-18T16:22:59.287Z,6.90
2019-03-18T16:25:28.985Z,6.80
2019-03-18T16:27:58.705Z,6.80
2019-03-18T16:30:28.463Z,6.90
2019-03-18T16:32:58.193Z,6.90
2019-03-18T16:35:27.823Z,6.90
2019-03-18T16:37:57.613Z,6.90
2019-03-18T16:40:27.315Z,6.70
2019-03-18T16:42:57.123Z,6.70
2019-03-18T16:45:26.907Z,6.80
2019-03-18T16:47:56.731Z,6.70
2019-03-18T16:50:28.383Z,6.60
2019-03-18T16:52:58.097Z,6.60
2019-03-18T16:55:27.799Z,6.70
2019-03-18T16:57:57.495Z,6.60
2019-03-18T17:00:28.065Z,6.50
2019-03-18T17:02:57.768Z,6.40
2019-03-18T17:05:27.447Z,6.30
2019-03-18T17:07:57.316Z,6.30
2019-03-18T17:10:27.073Z,6.20
2019-03-18T17:12:56.785Z,6.30
2019-03-18T17:15:26.537Z,6.30
2019-03-18T17:17:56.191Z,6.30
2019-03-18T17:20:27.058Z,6.30
2019-03-18T17:22:56.705Z,6.30
2019-03-18T17:25:29.752Z,6.20
2019-03-18T17:27:59.529Z,6.20
2019-03-18T17:30:29.241Z,6.10
2019-03-18T17:32:58.996Z,6.20
2019-03-18T17:35:28.736Z,6.10
2019-03-18T17:37:58.334Z,6.00
2019-03-18T17:40:28.059Z,6.00
2019-03-18T17:42:58.755Z,6.00
2019-03-18T17:45:28.386Z,6.10
2019-03-18T17:47:58.193Z,6.00
2019-03-18T17:50:29.298Z,6.00
2019-03-18T17:53:02.980Z,6.00
2019-03-18T17:55:30.684Z,6.00
2019-03-18T17:58:00.353Z,6.00
2019-03-18T18:00:32.760Z,5.90
2019-03-18T18:03:02.404Z,5.90
2019-03-18T18:05:32.042Z,5.90
2019-03-18T18:08:01.785Z,5.90
2019-03-18T18:10:31.374Z,5.80
2019-03-18T18:13:01.103Z,5.80
2019-03-18T18:15:30.842Z,5.70
2019-03-18T18:18:00.592Z,5.70
2019-03-18T18:20:30.302Z,5.70
2019-03-18T18:23:00.014Z,5.60
2019-03-18T18:25:29.681Z,5.60
2019-03-18T18:27:59.379Z,5.50
2019-03-18T18:30:29.089Z,5.40
2019-03-18T18:32:59.869Z,5.20
2019-03-18T18:35:29.444Z,5.10
2019-03-18T18:37:59.152Z,4.90
2019-03-18T18:40:29.789Z,4.70
2019-03-18T18:42:59.631Z,4.60
2019-03-18T18:45:29.281Z,4.40
2019-03-18T18:47:58.972Z,4.40
2019-03-18T18:50:28.586Z,4.20
2019-03-18T18:52:58.271Z,4.00
2019-03-18T18:55:28.008Z,3.80
2019-03-18T18:57:57.644Z,3.80
2019-03-18T19:00:27.360Z,3.80
2019-03-18T19:02:57.131Z,3.70
2019-03-18T19:05:26.889Z,3.60
2019-03-18T19:07:57.729Z,3.50
2019-03-18T19:10:27.852Z,3.40
2019-03-18T19:12:57.598Z,3.40
2019-03-18T19:15:29.728Z,3.40
2019-03-18T19:17:59.409Z,3.30
2019-03-18T19:20:29.077Z,3.30
2019-03-18T19:22:59.058Z,3.30
2019-03-18T19:25:28.700Z,3.30
2019-03-18T19:27:58.605Z,3.20
2019-03-18T19:30:29.038Z,3.20
2019-03-18T19:32:58.865Z,3.20
2019-03-18T19:35:28.879Z,3.10
2019-03-18T19:37:58.790Z,3.10
2019-03-18T19:40:28.543Z,3.10
2019-03-18T19:42:58.236Z,3.00
2019-03-18T19:45:27.835Z,3.00
2019-03-18T19:47:57.525Z,2.90
2019-03-18T19:50:29.193Z,3.00
2019-03-18T19:52:59.085Z,3.00
2019-03-18T19:55:29.869Z,3.00
2019-03-18T19:57:59.774Z,3.00
2019-03-18T20:00:30.480Z,3.00
2019-03-18T20:03:00.397Z,3.00
2019-03-18T20:05:30.085Z,3.00
2019-03-18T20:07:59.959Z,2.90
2019-03-18T20:10:29.743Z,2.90
2019-03-18T20:12:59.437Z,2.80
2019-03-18T20:15:29.200Z,2.80
2019-03-18T20:17:58.990Z,2.80
2019-03-18T20:20:28.681Z,2.90
2019-03-18T20:22:58.400Z,2.90
2019-03-18T20:25:28.199Z,3.00
2019-03-18T20:27:57.911Z,3.00
2019-03-18T20:30:27.721Z,3.00
2019-03-18T20:32:57.493Z,3.10
2019-03-18T20:35:27.299Z,3.00
2019-03-18T20:37:57.066Z,3.00
2019-03-18T20:40:26.712Z,2.90
2019-03-18T20:42:56.405Z,2.90
2019-03-18T20:45:26.701Z,2.90
2019-03-18T20:47:56.330Z,2.90
2019-03-18T20:50:26.153Z,2.90
2019-03-18T20:52:55.920Z,2.90
2019-03-18T20:55:25.560Z,2.80
2019-03-18T20:57:55.176Z,2.80
2019-03-18T21:00:25.353Z,2.70
2019-03-18T21:02:55.272Z,2.60
2019-03-18T21:05:25.553Z,2.60
2019-03-18T21:07:55.387Z,2.60
2019-03-18T21:10:25.017Z,2.60
2019-03-18T21:12:54.850Z,2.70
2019-03-18T21:15:24.575Z,2.70
2019-03-18T21:17:54.180Z,2.80
2019-03-18T21:20:26.572Z,2.80
2019-03-18T21:22:56.290Z,2.80
2019-03-18T21:25:27.451Z,2.80
2019-03-18T21:27:57.256Z,2.80
2019-03-18T21:30:27.008Z,2.70
2019-03-18T21:32:56.745Z,2.70
2019-03-18T21:35:26.486Z,2.70
2019-03-18T21:37:56.147Z,2.70
2019-03-18T21:40:25.917Z,2.70
2019-03-18T21:42:55.643Z,2.60
2019-03-18T21:45:25.391Z,2.50
2019-03-18T21:48:07.570Z,2.40
2019-03-18T21:50:37.211Z,2.40
2019-03-18T21:53:06.917Z,2.30
2019-03-18T21:55:36.548Z,2.20
2019-03-18T21:58:06.471Z,2.10
2019-03-18T22:00:36.081Z,2.10
2019-03-18T22:03:05.885Z,2.00
2019-03-18T22:05:35.541Z,1.90
2019-03-18T22:08:05.313Z,1.80
2019-03-18T22:10:34.999Z,1.80
2019-03-18T22:13:04.797Z,1.70
2019-03-18T22:15:34.549Z,1.80
2019-03-18T22:18:04.421Z,1.70
2019-03-18T22:20:34.302Z,1.70
2019-03-18T22:23:04.001Z,1.70
2019-03-18T22:25:34.718Z,1.70
2019-03-18T22:28:04.866Z,1.80
2019-03-18T22:30:34.544Z,1.80
2019-03-18T22:33:04.372Z,1.80
2019-03-18T22:35:34.018Z,1.80
2019-03-18T22:38:03.815Z,1.90
2019-03-18T22:40:33.524Z,1.80
2019-03-18T22:43:03.196Z,1.90
2019-03-18T22:45:32.909Z,1.80
2019-03-18T22:48:02.782Z,1.80
2019-03-18T22:50:32.406Z,1.90
2019-03-18T22:53:02.085Z,1.90
2019-03-18T22:55:31.748Z,2.00
2019-03-18T22:58:01.432Z,2.00
2019-03-18T23:00:33.126Z,2.10
2019-03-18T23:03:02.940Z,2.10
2019-03-18T23:05:32.726Z,2.20
2019-03-18T23:08:02.618Z,2.20
2019-03-18T23:10:32.960Z,2.30
2019-03-18T23:13:02.662Z,2.30
2019-03-18T23:15:32.441Z,2.10
2019-03-18T23:18:02.219Z,2.10
2019-03-18T23:20:31.897Z,2.10
2019-03-18T23:23:01.565Z,2.00
2019-03-18T23:25:31.271Z,2.00
2019-03-18T23:28:01.965Z,2.10
2019-03-18T23:30:31.663Z,2.10
2019-03-18T23:33:01.355Z,2.00
2019-03-18T23:35:30.980Z,2.00
2019-03-18T23:38:00.693Z,1.90
2019-03-18T23:40:49.729Z,1.90
2019-03-18T23:43:34.705Z,1.80
2019-03-18T23:46:04.451Z,1.80
2019-03-18T23:48:34.046Z,1.70
2019-03-18T23:51:03.834Z,1.70
2019-03-18T23:53:33.554Z,1.70
2019-03-18T23:56:03.277Z,1.60
2019-03-18T23:58:32.928Z,1.60
